Time;durP1;ratioP1;P1;durP2;ratioP2;P2;SDS_P1;SDS_P2;PMS_P1;PMS_P2;Temp;Humidity;BMP_temperature;BMP_pressure;BME280_temperature;BME280_humidity;BME280_pressure;Samples;Min_cycle;Max_cycle;Signal;HPM_P1;HPM_P2
2024/01/21 00:00:11;;;;;;;0.50;0.50;;;1.10;99.90;;;;;;5045219;28;20651;-88
2024/01/21 00:02:36;;;;;;;0.50;0.50;;;1.10;99.90;;;;;;5068710;28;20424;-88
2024/01/21 00:05:03;;;;;;;0.60;0.60;;;1.10;99.90;;;;;;5066465;28;20759;-88
2024/01/21 00:07:28;;;;;;;0.57;0.57;;;1.10;99.90;;;;;;5068298;28;20245;-88
2024/01/21 00:09:53;;;;;;;0.50;0.50;;;1.10;99.90;;;;;;5048023;28;20496;-88
2024/01/21 00:12:19;;;;;;;0.50;0.50;;;1.10;99.90;;;;;;5068644;28;20262;-87
2024/01/21 00:14:45;;;;;;;0.40;0.40;;;1.10;99.90;;;;;;5068516;28;20687;-88
2024/01/21 00:17:11;;;;;;;0.40;0.40;;;1.10;99.90;;;;;;5068320;28;20243;-88
2024/01/21 00:19:36;;;;;;;0.53;0.53;;;1.10;99.90;;;;;;5050823;28;20186;-88
2024/01/21 00:22:03;;;;;;;0.53;0.53;;;1.10;99.90;;;;;;5068020;28;20808;-89
2024/01/21 00:24:29;;;;;;;0.50;0.50;;;1.00;99.90;;;;;;5048891;28;20424;-88
2024/01/21 00:26:54;;;;;;;0.50;0.50;;;1.00;99.90;;;;;;5066740;28;20235;-89
2024/01/21 00:29:20;;;;;;;0.50;0.50;;;1.00;99.90;;;;;;5050146;28;20189;-88
2024/01/21 00:31:45;;;;;;;0.57;0.57;;;1.10;99.90;;;;;;5068804;28;20186;-88
2024/01/21 00:34:11;;;;;;;0.40;0.40;;;1.00;99.90;;;;;;5064476;28;20567;-88
2024/01/21 00:36:36;;;;;;;0.50;0.50;;;1.00;99.90;;;;;;5071948;28;20239;-88
2024/01/21 00:39:02;;;;;;;0.40;0.40;;;1.00;99.90;;;;;;5072793;28;20637;-88
2024/01/21 00:41:27;;;;;;;0.60;0.60;;;1.00;99.90;;;;;;5072116;28;20642;-87
2024/01/21 00:43:53;;;;;;;0.60;0.60;;;1.00;99.90;;;;;;5069036;28;20185;-88
2024/01/21 00:46:18;;;;;;;0.60;0.60;;;1.00;99.90;;;;;;5054022;28;20618;-88
2024/01/21 00:48:44;;;;;;;0.37;0.37;;;1.00;99.90;;;;;;5071805;28;20598;-88
2024/01/21 00:51:09;;;;;;;0.40;0.40;;;0.90;99.90;;;;;;5071382;28;20204;-88
2024/01/21 00:53:35;;;;;;;0.50;0.50;;;0.90;99.90;;;;;;5072051;28;20270;-88
2024/01/21 00:56:01;;;;;;;0.60;0.60;;;0.90;99.90;;;;;;5071902;28;20233;-88
2024/01/21 00:58:26;;;;;;;0.60;0.60;;;0.90;99.90;;;;;;5053465;28;20208;-88
2024/01/21 01:00:52;;;;;;;0.60;0.60;;;0.90;99.90;;;;;;5069031;28;21251;-88
2024/01/21 01:03:17;;;;;;;0.60;0.60;;;0.90;99.90;;;;;;5064992;28;20189;-87
2024/01/21 01:05:43;;;;;;;0.50;0.50;;;0.90;99.90;;;;;;5049925;28;20225;-88
2024/01/21 01:08:08;;;;;;;0.50;0.50;;;0.90;99.90;;;;;;5068551;28;20186;-88
2024/01/21 01:10:34;;;;;;;0.60;0.60;;;0.90;99.90;;;;;;5069800;28;20233;-88
2024/01/21 01:13:00;;;;;;;0.60;0.60;;;1.00;99.90;;;;;;5068460;28;21101;-88
2024/01/21 01:15:25;;;;;;;0.60;0.60;;;0.90;99.90;;;;;;5065497;28;20205;-89
2024/01/21 01:17:51;;;;;;;0.50;0.50;;;0.90;99.90;;;;;;5067380;28;20268;-87
2024/01/21 01:20:17;;;;;;;0.53;0.53;;;0.90;99.90;;;;;;5051590;28;20305;-89
2024/01/21 01:22:43;;;;;;;0.50;0.50;;;0.90;99.90;;;;;;5068716;28;20183;-88
2024/01/21 01:25:09;;;;;;;0.57;0.57;;;0.90;99.90;;;;;;5068874;28;20924;-88
2024/01/21 01:27:34;;;;;;;0.50;0.50;;;0.90;99.90;;;;;;5069288;28;20282;-88
2024/01/21 01:30:00;;;;;;;0.60;0.60;;;0.90;99.90;;;;;;5068010;28;20235;-88
2024/01/21 01:32:25;;;;;;;0.53;0.53;;;0.90;99.90;;;;;;5066703;28;20181;-88
2024/01/21 01:34:54;;;;;;;0.60;0.60;;;0.80;99.90;;;;;;5068954;28;20224;-88
2024/01/21 01:37:21;;;;;;;0.60;0.60;;;0.80;99.90;;;;;;5070896;28;20228;-89
2024/01/21 01:39:46;;;;;;;0.60;0.60;;;0.80;99.90;;;;;;5052119;28;20474;-88
2024/01/21 01:42:12;;;;;;;0.50;0.50;;;0.80;99.90;;;;;;5070778;28;20432;-88
2024/01/21 01:44:40;;;;;;;0.50;0.50;;;0.80;99.90;;;;;;5070025;28;20553;-88
2024/01/21 01:47:07;;;;;;;0.40;0.40;;;0.70;99.90;;;;;;5069307;28;20210;-89
2024/01/21 01:49:32;;;;;;;0.40;0.40;;;0.80;99.90;;;;;;5067564;28;20432;-89
2024/01/21 01:51:58;;;;;;;0.60;0.60;;;0.80;99.90;;;;;;5068585;28;20447;-89
2024/01/21 01:54:28;;;;;;;0.60;0.60;;;0.80;99.90;;;;;;5070666;28;20174;-89
2024/01/21 01:56:53;;;;;;;0.60;0.60;;;0.80;99.90;;;;;;5067172;28;20261;-88
2024/01/21 01:59:20;;;;;;;0.50;0.50;;;0.70;99.90;;;;;;5065134;28;20577;-89
2024/01/21 02:01:46;;;;;;;0.50;0.50;;;0.80;99.90;;;;;;5069645;28;20182;-89
2024/01/21 02:04:11;;;;;;;0.60;0.60;;;0.80;99.90;;;;;;5070113;28;21162;-89
2024/01/21 02:06:38;;;;;;;0.40;0.40;;;0.80;99.90;;;;;;5068457;28;20222;-87
2024/01/21 02:09:05;;;;;;;0.60;0.60;;;0.80;99.90;;;;;;5069074;28;20267;-88
2024/01/21 02:11:31;;;;;;;0.50;0.50;;;0.80;99.90;;;;;;5069513;28;20475;-88
2024/01/21 02:13:56;;;;;;;0.50;0.50;;;0.80;99.90;;;;;;5069192;28;20420;-88
2024/01/21 02:16:22;;;;;;;0.50;0.50;;;0.80;99.90;;;;;;5069569;28;20638;-89
2024/01/21 02:18:49;;;;;;;0.60;0.60;;;0.80;99.90;;;;;;5051750;28;20182;-88
2024/01/21 02:21:15;;;;;;;0.43;0.43;;;0.80;99.90;;;;;;5070039;28;20196;-89
2024/01/21 02:23:40;;;;;;;0.60;0.60;;;0.70;99.90;;;;;;5067738;28;20440;-89
2024/01/21 02:26:06;;;;;;;0.50;0.50;;;0.80;99.90;;;;;;5069339;28;20209;-88
2024/01/21 02:28:31;;;;;;;0.60;0.60;;;0.80;99.90;;;;;;5069777;28;20182;-88
2024/01/21 02:30:57;;;;;;;0.50;0.50;;;0.80;99.90;;;;;;5066785;28;20260;-89
2024/01/21 02:33:22;;;;;;;0.53;0.53;;;0.80;99.90;;;;;;5069865;28;20210;-88
2024/01/21 02:35:48;;;;;;;0.70;0.70;;;0.80;99.90;;;;;;5068844;28;20261;-88
2024/01/21 02:38:13;;;;;;;0.50;0.50;;;0.80;99.90;;;;;;5064942;28;20840;-88
2024/01/21 02:40:40;;;;;;;0.50;0.50;;;0.80;99.90;;;;;;5066800;28;20173;-88
2024/01/21 02:43:07;;;;;;;0.60;0.60;;;0.80;99.90;;;;;;5069384;28;20622;-88
2024/01/21 02:45:33;;;;;;;0.50;0.50;;;0.90;99.90;;;;;;5069320;28;20830;-88
2024/01/21 02:47:58;;;;;;;0.60;0.60;;;0.90;99.90;;;;;;5069760;28;20956;-88
2024/01/21 02:50:24;;;;;;;0.50;0.50;;;0.90;99.90;;;;;;5070067;28;20455;-88
2024/01/21 02:52:49;;;;;;;0.50;0.50;;;0.90;99.90;;;;;;5069007;28;20209;-88
2024/01/21 02:55:15;;;;;;;0.60;0.60;;;0.90;99.90;;;;;;5068047;28;20186;-89
2024/01/21 02:57:40;;;;;;;0.60;0.60;;;0.90;99.90;;;;;;5069430;28;20174;-88
2024/01/21 03:00:07;;;;;;;0.60;0.60;;;1.00;99.90;;;;;;5047905;28;20213;-89
2024/01/21 03:02:33;;;;;;;0.60;0.60;;;1.00;99.90;;;;;;5050404;28;20182;-88
2024/01/21 03:04:58;;;;;;;0.53;0.53;;;1.00;99.90;;;;;;5067393;28;20487;-88
2024/01/21 03:07:24;;;;;;;0.70;0.70;;;1.00;99.90;;;;;;5066598;28;20279;-88
2024/01/21 03:09:49;;;;;;;0.50;0.50;;;1.00;99.90;;;;;;5069526;28;20706;-89
2024/01/21 03:12:15;;;;;;;0.50;0.50;;;1.00;99.90;;;;;;5069652;28;20665;-89
2024/01/21 03:14:41;;;;;;;0.60;0.60;;;0.90;99.90;;;;;;5066799;28;20188;-87
2024/01/21 03:17:07;;;;;;;0.50;0.50;;;1.00;99.90;;;;;;5069562;28;20627;-88
2024/01/21 03:19:33;;;;;;;0.60;0.60;;;1.00;99.90;;;;;;5068639;28;20185;-87
2024/01/21 03:21:58;;;;;;;0.50;0.50;;;1.00;99.90;;;;;;5069024;28;20417;-87
2024/01/21 03:24:24;;;;;;;0.57;0.57;;;0.90;99.90;;;;;;5068289;28;20447;-88
2024/01/21 03:26:50;;;;;;;0.60;0.60;;;0.90;99.90;;;;;;5067403;28;21052;-87
2024/01/21 03:29:15;;;;;;;0.50;0.50;;;1.00;99.90;;;;;;5066638;28;20194;-88
2024/01/21 03:31:41;;;;;;;0.60;0.60;;;1.00;99.90;;;;;;5067710;28;20197;-88
2024/01/21 03:34:06;;;;;;;0.50;0.50;;;0.90;99.90;;;;;;5068527;28;20266;-87
2024/01/21 03:36:32;;;;;;;0.60;0.60;;;0.90;99.90;;;;;;5069310;28;20190;-87
2024/01/21 03:38:58;;;;;;;0.50;0.50;;;0.90;99.90;;;;;;5068913;28;20208;-87
2024/01/21 03:41:23;;;;;;;0.70;0.70;;;0.90;99.90;;;;;;5068179;28;20189;-88
2024/01/21 03:43:49;;;;;;;0.47;0.47;;;0.80;99.90;;;;;;5050672;28;20528;-87
2024/01/21 03:46:14;;;;;;;0.70;0.70;;;0.90;99.90;;;;;;5066783;28;20391;-87
2024/01/21 03:48:40;;;;;;;0.50;0.50;;;0.90;99.90;;;;;;5068612;28;20243;-86
2024/01/21 03:51:05;;;;;;;0.60;0.60;;;0.80;99.90;;;;;;5068085;28;20190;-86
2024/01/21 03:53:31;;;;;;;0.70;0.70;;;0.80;99.90;;;;;;5068831;28;20189;-87
2024/01/21 03:55:57;;;;;;;0.60;0.60;;;0.80;99.90;;;;;;5066500;28;20178;-87
2024/01/21 03:58:22;;;;;;;0.60;0.60;;;0.80;99.90;;;;;;5065344;28;20186;-87
2024/01/21 04:00:48;;;;;;;0.60;0.60;;;0.90;99.90;;;;;;5068048;28;20184;-87
2024/01/21 04:03:13;;;;;;;0.50;0.50;;;0.90;99.90;;;;;;5067800;28;20209;-87
2024/01/21 04:05:39;;;;;;;0.50;0.50;;;0.90;99.90;;;;;;5064313;28;20205;-87
2024/01/21 04:08:06;;;;;;;0.60;0.60;;;0.90;99.90;;;;;;5069053;28;20634;-87
2024/01/21 04:10:31;;;;;;;0.60;0.60;;;0.90;99.90;;;;;;5072628;28;20661;-87
2024/01/21 04:12:57;;;;;;;0.50;0.50;;;0.90;99.90;;;;;;5072362;28;20540;-87
2024/01/21 04:15:22;;;;;;;0.40;0.40;;;1.00;99.90;;;;;;5071739;28;20554;-87
2024/01/21 04:17:48;;;;;;;0.40;0.40;;;1.00;99.90;;;;;;5071053;28;20988;-87
2024/01/21 04:20:13;;;;;;;0.50;0.50;;;1.00;99.90;;;;;;5072220;28;20174;-86
2024/01/21 04:22:39;;;;;;;0.50;0.50;;;1.10;99.90;;;;;;5072430;28;20189;-87
2024/01/21 04:25:05;;;;;;;0.50;0.50;;;1.10;99.90;;;;;;5072074;28;20182;-86
2024/01/21 04:27:30;;;;;;;0.50;0.50;;;1.10;99.90;;;;;;5068361;28;20770;-86
2024/01/21 04:29:56;;;;;;;0.60;0.60;;;1.10;99.90;;;;;;5072702;28;20178;-87
2024/01/21 04:32:21;;;;;;;0.50;0.50;;;1.20;99.90;;;;;;5071739;28;20185;-87
2024/01/21 04:34:47;;;;;;;0.60;0.60;;;1.20;99.90;;;;;;5070707;28;20183;-87
2024/01/21 04:37:12;;;;;;;0.40;0.40;;;1.20;99.90;;;;;;5054719;28;20190;-87
2024/01/21 04:39:38;;;;;;;0.50;0.50;;;1.20;99.90;;;;;;5069851;28;20174;-86
2024/01/21 04:42:03;;;;;;;0.57;0.57;;;1.20;99.90;;;;;;5054455;28;20185;-86
2024/01/21 04:44:29;;;;;;;0.60;0.60;;;1.20;99.90;;;;;;5072035;28;20193;-88
2024/01/21 04:46:54;;;;;;;0.50;0.50;;;1.20;99.90;;;;;;5070241;28;20699;-87
2024/01/21 04:49:20;;;;;;;0.60;0.60;;;1.20;99.90;;;;;;5069629;28;20194;-87
2024/01/21 04:51:46;;;;;;;0.50;0.50;;;1.20;99.90;;;;;;5071537;28;20177;-87
2024/01/21 04:54:11;;;;;;;0.50;0.50;;;1.20;99.90;;;;;;5052743;28;20210;-87
2024/01/21 04:56:37;;;;;;;0.50;0.50;;;1.20;99.90;;;;;;5071975;28;20214;-87
2024/01/21 04:59:03;;;;;;;0.40;0.40;;;1.20;99.90;;;;;;5071876;28;20189;-87
2024/01/21 05:01:28;;;;;;;0.50;0.50;;;1.20;99.90;;;;;;5065721;28;20889;-87
2024/01/21 05:03:54;;;;;;;0.40;0.40;;;1.20;99.90;;;;;;5068703;28;20891;-87
2024/01/21 05:06:20;;;;;;;0.40;0.40;;;1.20;99.90;;;;;;5069747;28;20218;-86
2024/01/21 05:08:46;;;;;;;0.50;0.50;;;1.30;99.90;;;;;;5071691;28;20174;-88
2024/01/21 05:11:15;;;;;;;0.50;0.50;;;1.30;99.90;;;;;;5070827;28;20475;-88
2024/01/21 05:13:41;;;;;;;0.60;0.60;;;1.30;99.90;;;;;;5070930;28;20216;-87
2024/01/21 05:16:06;;;;;;;0.53;0.53;;;1.30;99.90;;;;;;5071476;28;20436;-87
2024/01/21 05:18:32;;;;;;;0.60;0.60;;;1.40;99.90;;;;;;5070781;28;20456;-88
2024/01/21 05:20:57;;;;;;;0.50;0.50;;;1.40;99.90;;;;;;5071074;28;20182;-87
2024/01/21 05:23:23;;;;;;;0.50;0.50;;;1.40;99.90;;;;;;5068572;28;21172;-88
2024/01/21 05:25:52;;;;;;;0.50;0.50;;;1.40;99.90;;;;;;5070474;28;20244;-87
2024/01/21 05:28:18;;;;;;;0.50;0.50;;;1.40;99.90;;;;;;5071502;28;20193;-87
2024/01/21 05:30:43;;;;;;;0.50;0.50;;;1.40;99.90;;;;;;5070304;28;20943;-87
2024/01/21 05:33:09;;;;;;;0.60;0.60;;;1.40;99.90;;;;;;5070268;28;20190;-87
2024/01/21 05:35:34;;;;;;;0.60;0.60;;;1.40;99.90;;;;;;5068522;28;20204;-87
2024/01/21 05:38:00;;;;;;;0.40;0.40;;;1.40;99.90;;;;;;5069862;28;20194;-87
2024/01/21 05:40:25;;;;;;;0.60;0.60;;;1.50;99.90;;;;;;5071269;28;20182;-87
2024/01/21 05:42:51;;;;;;;0.60;0.60;;;1.40;99.90;;;;;;5071056;28;20182;-87
2024/01/21 05:45:17;;;;;;;0.50;0.50;;;1.40;99.90;;;;;;5069225;28;20217;-87
2024/01/21 05:47:42;;;;;;;0.50;0.50;;;1.40;99.90;;;;;;5067173;28;20685;-87
2024/01/21 05:50:08;;;;;;;0.53;0.53;;;1.50;99.90;;;;;;5053154;28;20216;-87
2024/01/21 05:52:35;;;;;;;0.60;0.60;;;1.50;99.90;;;;;;5069095;28;20243;-87
2024/01/21 05:55:00;;;;;;;0.50;0.50;;;1.50;99.90;;;;;;5070662;28;20174;-88
2024/01/21 05:57:26;;;;;;;0.40;0.40;;;1.50;99.90;;;;;;5066255;28;20424;-87
2024/01/21 05:59:51;;;;;;;0.50;0.50;;;1.50;99.90;;;;;;5068897;28;20186;-87
2024/01/21 06:02:18;;;;;;;0.50;0.50;;;1.50;99.90;;;;;;5066501;28;20187;-88
2024/01/21 06:04:43;;;;;;;0.50;0.50;;;1.50;99.90;;;;;;5070326;28;20269;-87
2024/01/21 06:07:09;;;;;;;0.53;0.53;;;1.40;99.90;;;;;;5070607;28;20910;-89
2024/01/21 06:09:35;;;;;;;0.50;0.50;;;1.40;99.90;;;;;;5068231;28;20196;-87
2024/01/21 06:12:00;;;;;;;0.50;0.50;;;1.40;99.90;;;;;;5065251;28;20190;-88
2024/01/21 06:14:26;;;;;;;0.40;0.40;;;1.40;99.90;;;;;;5068071;28;20417;-89
2024/01/21 06:16:54;;;;;;;0.53;0.53;;;1.30;99.90;;;;;;5069369;28;20265;-88
2024/01/21 06:19:20;;;;;;;0.40;0.40;;;1.40;99.90;;;;;;5070844;28;20182;-88
2024/01/21 06:21:45;;;;;;;0.50;0.50;;;1.30;99.90;;;;;;5070234;28;20458;-88
2024/01/21 06:24:12;;;;;;;0.50;0.50;;;1.30;99.90;;;;;;5070421;28;20182;-89
2024/01/21 06:26:38;;;;;;;0.40;0.40;;;1.30;99.90;;;;;;5063323;28;20259;-88
2024/01/21 06:29:04;;;;;;;0.60;0.60;;;1.30;99.90;;;;;;5070017;28;21077;-89
2024/01/21 06:31:30;;;;;;;0.60;0.60;;;1.30;99.90;;;;;;5067873;28;20454;-88
2024/01/21 06:33:55;;;;;;;0.60;0.60;;;1.40;99.90;;;;;;5067699;28;20842;-87
2024/01/21 06:36:24;;;;;;;0.60;0.60;;;1.40;99.90;;;;;;5067638;28;20586;-88
2024/01/21 06:38:50;;;;;;;0.60;0.60;;;1.30;99.90;;;;;;5068579;28;20224;-88
2024/01/21 06:41:15;;;;;;;0.50;0.50;;;1.30;99.90;;;;;;5068873;28;20785;-87
2024/01/21 06:43:41;;;;;;;0.50;0.50;;;1.40;99.90;;;;;;5069496;28;20186;-88
2024/01/21 06:46:08;;;;;;;0.50;0.50;;;1.40;99.90;;;;;;5067084;28;20824;-87
2024/01/21 06:48:33;;;;;;;0.60;0.60;;;1.40;99.90;;;;;;5066645;28;20174;-87
2024/01/21 06:50:59;;;;;;;0.50;0.50;;;1.40;99.90;;;;;;5069071;28;20984;-88
2024/01/21 06:53:24;;;;;;;0.50;0.50;;;1.50;99.90;;;;;;5068202;28;20715;-87
2024/01/21 06:55:50;;;;;;;0.50;0.50;;;1.50;99.90;;;;;;5065317;28;20691;-88
2024/01/21 06:58:16;;;;;;;0.40;0.40;;;1.50;99.90;;;;;;5069195;28;20201;-88
2024/01/21 07:00:41;;;;;;;0.40;0.40;;;1.50;99.90;;;;;;5068857;28;20227;-88
2024/01/21 07:03:07;;;;;;;0.43;0.43;;;1.50;99.90;;;;;;5066662;28;20717;-88
2024/01/21 07:05:33;;;;;;;0.43;0.43;;;1.50;99.90;;;;;;5067359;28;20452;-89
2024/01/21 07:07:58;;;;;;;0.50;0.50;;;1.50;99.90;;;;;;5068697;28;20601;-88
2024/01/21 07:10:24;;;;;;;0.40;0.40;;;1.50;99.90;;;;;;5066254;28;20319;-88
2024/01/21 07:12:50;;;;;;;0.50;0.50;;;1.50;99.90;;;;;;5068560;28;20185;-87
2024/01/21 07:15:16;;;;;;;0.40;0.40;;;1.50;99.90;;;;;;5068273;28;20174;-88
2024/01/21 07:17:43;;;;;;;0.50;0.50;;;1.50;99.90;;;;;;5067400;28;20477;-87
2024/01/21 07:20:12;;;;;;;0.50;0.50;;;1.50;99.90;;;;;;5069945;28;20577;-87
2024/01/21 07:22:38;;;;;;;0.60;0.60;;;1.50;99.90;;;;;;5064417;28;20416;-89
2024/01/21 07:25:04;;;;;;;0.50;0.50;;;1.50;99.90;;;;;;5065847;28;20831;-89
2024/01/21 07:27:29;;;;;;;0.40;0.40;;;1.60;99.90;;;;;;5067235;28;20395;-88
2024/01/21 07:29:55;;;;;;;0.50;0.50;;;1.60;99.90;;;;;;5069069;28;20756;-89
2024/01/21 07:32:20;;;;;;;0.50;0.50;;;1.60;99.90;;;;;;5068867;28;20214;-90
2024/01/21 07:34:46;;;;;;;0.50;0.50;;;1.60;99.90;;;;;;5067765;28;20286;-88
2024/01/21 07:37:11;;;;;;;0.30;0.30;;;1.60;99.90;;;;;;5068372;28;20200;-88
2024/01/21 07:39:37;;;;;;;0.40;0.40;;;1.60;99.90;;;;;;5068797;28;20670;-89
2024/01/21 07:42:03;;;;;;;0.40;0.40;;;1.60;99.90;;;;;;5064621;28;20175;-88
2024/01/21 07:44:28;;;;;;;0.50;0.50;;;1.60;99.90;;;;;;5065919;28;20190;-85
2024/01/21 07:46:54;;;;;;;0.50;0.50;;;1.70;99.90;;;;;;5069153;28;20770;-86
2024/01/21 07:49:20;;;;;;;0.40;0.40;;;1.70;99.90;;;;;;5068468;28;20177;-86
2024/01/21 07:51:46;;;;;;;0.50;0.50;;;1.80;99.90;;;;;;5068758;28;20227;-85
2024/01/21 07:54:12;;;;;;;0.50;0.50;;;1.90;99.90;;;;;;5067854;28;20264;-87
2024/01/21 07:56:37;;;;;;;0.50;0.50;;;1.80;99.90;;;;;;5069619;28;21054;-86
2024/01/21 07:59:03;;;;;;;0.50;0.50;;;1.70;99.90;;;;;;5047863;28;20519;-86
2024/01/21 08:01:28;;;;;;;0.40;0.40;;;1.70;99.90;;;;;;5062182;28;20964;-86
2024/01/21 08:03:54;;;;;;;0.50;0.50;;;1.70;99.90;;;;;;5065361;28;20542;-88
2024/01/21 08:06:20;;;;;;;0.50;0.50;;;1.80;99.90;;;;;;5058767;28;20253;-88
2024/01/21 08:08:46;;;;;;;0.40;0.40;;;1.80;99.90;;;;;;5067804;28;20186;-87
2024/01/21 08:11:11;;;;;;;0.40;0.40;;;1.90;99.90;;;;;;5055727;28;20222;-87
2024/01/21 08:13:37;;;;;;;0.50;0.50;;;1.90;99.90;;;;;;5050249;28;20434;-85
2024/01/21 08:16:03;;;;;;;0.50;0.50;;;1.80;99.90;;;;;;5062316;28;20263;-85
2024/01/21 08:18:28;;;;;;;0.50;0.50;;;1.90;99.90;;;;;;5049292;28;20671;-87
2024/01/21 08:20:55;;;;;;;0.40;0.40;;;1.90;99.90;;;;;;5069699;28;20263;-87
2024/01/21 08:23:21;;;;;;;0.57;0.57;;;1.90;99.90;;;;;;5068020;28;20339;-88
2024/01/21 08:25:47;;;;;;;0.50;0.50;;;1.90;99.90;;;;;;5069329;28;21010;-87
2024/01/21 08:28:12;;;;;;;0.50;0.50;;;1.90;99.90;;;;;;5068458;28;20566;-86
2024/01/21 08:30:38;;;;;;;0.50;0.50;;;1.90;99.90;;;;;;5067390;28;20543;-87
2024/01/21 08:33:04;;;;;;;0.50;0.50;;;1.90;99.90;;;;;;5068484;28;20190;-87
2024/01/21 08:35:29;;;;;;;0.57;0.57;;;1.90;99.90;;;;;;5065431;28;20564;-86
2024/01/21 08:37:55;;;;;;;0.47;0.47;;;1.90;99.90;;;;;;5065369;28;20190;-87
2024/01/21 08:40:20;;;;;;;0.50;0.50;;;1.90;99.90;;;;;;5067304;28;20206;-87
2024/01/21 08:42:46;;;;;;;0.50;0.50;;;1.90;99.90;;;;;;5067228;28;20186;-86
2024/01/21 08:45:11;;;;;;;0.60;0.60;;;1.90;99.90;;;;;;5068582;28;20190;-86
2024/01/21 08:47:38;;;;;;;0.50;0.50;;;1.90;99.90;;;;;;5065416;28;20218;-86
2024/01/21 08:50:04;;;;;;;0.50;0.50;;;2.00;99.90;;;;;;5062877;28;20175;-87
2024/01/21 08:52:30;;;;;;;0.47;0.47;;;2.00;99.90;;;;;;5058425;28;20436;-87
2024/01/21 08:54:55;;;;;;;0.47;0.47;;;2.00;99.90;;;;;;5062984;28;20437;-87
2024/01/21 08:57:21;;;;;;;0.50;0.50;;;2.10;99.90;;;;;;5071310;28;20197;-87
2024/01/21 08:59:46;;;;;;;0.60;0.60;;;2.20;99.90;;;;;;5071887;28;20693;-87
2024/01/21 09:02:12;;;;;;;0.40;0.40;;;2.20;99.90;;;;;;5072112;28;20189;-88
2024/01/21 09:04:40;;;;;;;0.50;0.50;;;2.10;99.90;;;;;;5066471;28;20198;-88
2024/01/21 09:07:07;;;;;;;0.50;0.50;;;2.20;99.90;;;;;;5070434;28;20225;-88
2024/01/21 09:09:34;;;;;;;0.47;0.47;;;2.20;99.90;;;;;;5069637;28;20452;-87
2024/01/21 09:12:00;;;;;;;0.50;0.50;;;2.20;99.90;;;;;;5066537;28;20460;-87
2024/01/21 09:14:26;;;;;;;0.50;0.50;;;2.20;99.90;;;;;;5066308;28;20436;-87
2024/01/21 09:16:51;;;;;;;0.47;0.47;;;2.20;99.90;;;;;;5072113;28;20186;-86
2024/01/21 09:19:17;;;;;;;0.40;0.40;;;2.20;99.90;;;;;;5051516;28;20611;-86
2024/01/21 09:21:42;;;;;;;0.50;0.50;;;2.20;99.90;;;;;;5065397;28;20201;-87
2024/01/21 09:24:08;;;;;;;0.50;0.50;;;2.20;99.90;;;;;;5071040;28;20214;-87
2024/01/21 09:26:34;;;;;;;0.47;0.47;;;2.30;99.90;;;;;;5068132;28;20221;-89
2024/01/21 09:29:00;;;;;;;0.50;0.50;;;2.30;99.90;;;;;;5062701;28;20194;-88
2024/01/21 09:31:26;;;;;;;0.50;0.50;;;2.30;99.90;;;;;;5069135;28;20194;-88
2024/01/21 09:33:53;;;;;;;0.60;0.60;;;2.30;99.90;;;;;;5069300;28;20193;-88
2024/01/21 09:36:19;;;;;;;0.50;0.50;;;2.30;99.90;;;;;;5060603;28;20432;-88
2024/01/21 09:38:45;;;;;;;0.50;0.50;;;2.40;99.90;;;;;;5059212;28;20437;-88
2024/01/21 09:41:22;;;;;;;0.40;0.40;;;2.40;99.90;;;;;;5060465;28;20248;-88
2024/01/21 09:43:49;;;;;;;0.50;0.50;;;2.50;99.90;;;;;;5060935;28;20789;-88
2024/01/21 09:46:15;;;;;;;0.40;0.40;;;2.40;99.90;;;;;;5053470;28;20480;-89
2024/01/21 09:48:40;;;;;;;0.40;0.40;;;2.50;99.90;;;;;;5050717;28;20447;-87
2024/01/21 09:51:08;;;;;;;0.40;0.40;;;2.50;99.90;;;;;;5048311;28;20194;-89
2024/01/21 09:53:34;;;;;;;0.50;0.50;;;2.50;99.90;;;;;;5059278;28;20277;-88
2024/01/21 09:56:06;;;;;;;0.50;0.50;;;2.60;99.90;;;;;;5060786;28;21040;-89
2024/01/21 09:58:40;;;;;;;0.40;0.40;;;2.60;99.90;;;;;;5065531;28;20193;-88
2024/01/21 10:01:07;;;;;;;0.40;0.40;;;2.60;99.90;;;;;;5063914;28;20519;-89
2024/01/21 10:03:33;;;;;;;0.43;0.43;;;2.60;99.90;;;;;;5070164;28;20489;-89
2024/01/21 10:05:58;;;;;;;0.50;0.50;;;2.70;99.90;;;;;;5068501;28;21177;-88
2024/01/21 10:08:24;;;;;;;0.47;0.47;;;2.70;99.90;;;;;;5068896;28;20190;-88
2024/01/21 10:10:49;;;;;;;0.47;0.47;;;2.80;99.90;;;;;;5061334;28;20241;-88
2024/01/21 10:13:15;;;;;;;0.47;0.47;;;2.80;99.90;;;;;;5070649;28;20281;-88
2024/01/21 10:15:41;;;;;;;0.50;0.50;;;2.90;99.90;;;;;;5056939;28;20197;-88
2024/01/21 10:18:06;;;;;;;0.40;0.40;;;2.90;99.90;;;;;;5069204;28;20991;-88
2024/01/21 10:20:35;;;;;;;0.40;0.40;;;2.90;99.90;;;;;;5062419;28;20193;-88
2024/01/21 10:23:11;;;;;;;0.50;0.50;;;3.00;99.90;;;;;;5062939;28;20680;-88
2024/01/21 10:25:40;;;;;;;0.50;0.50;;;3.10;99.90;;;;;;5056640;28;20447;-88
2024/01/21 10:28:06;;;;;;;0.50;0.50;;;3.10;99.90;;;;;;5066429;28;20444;-88
2024/01/21 10:30:31;;;;;;;0.50;0.50;;;3.20;99.90;;;;;;5069063;28;20435;-90
2024/01/21 10:32:57;;;;;;;0.50;0.50;;;3.30;99.90;;;;;;5067627;28;20186;-88
2024/01/21 10:35:23;;;;;;;0.50;0.50;;;3.30;99.90;;;;;;5065069;28;20181;-88
2024/01/21 10:37:49;;;;;;;0.40;0.40;;;3.40;99.90;;;;;;5062965;28;20547;-88
2024/01/21 10:40:14;;;;;;;0.50;0.50;;;3.40;99.90;;;;;;5064495;28;20193;-88
2024/01/21 10:42:41;;;;;;;0.40;0.40;;;3.40;99.90;;;;;;5066512;28;20182;-88
2024/01/21 10:45:07;;;;;;;0.50;0.50;;;3.40;99.90;;;;;;5068795;28;20273;-89
2024/01/21 10:47:34;;;;;;;0.40;0.40;;;3.40;99.90;;;;;;5058494;28;20553;-88
2024/01/21 10:50:02;;;;;;;0.40;0.40;;;3.40;99.90;;;;;;5070974;28;20462;-89
2024/01/21 10:52:28;;;;;;;0.40;0.40;;;3.40;99.90;;;;;;5061368;28;20456;-86
2024/01/21 10:54:55;;;;;;;0.40;0.40;;;3.30;99.90;;;;;;5061313;28;20436;-85
2024/01/21 10:57:20;;;;;;;0.33;0.33;;;3.20;99.90;;;;;;5064562;28;20448;-87
2024/01/21 10:59:46;;;;;;;0.47;0.47;;;3.10;99.90;;;;;;5046767;28;20764;-87
2024/01/21 11:02:12;;;;;;;0.50;0.50;;;3.00;99.90;;;;;;5056812;28;20197;-85
2024/01/21 11:04:37;;;;;;;0.50;0.50;;;3.00;99.90;;;;;;5067685;28;20248;-87
2024/01/21 11:07:05;;;;;;;0.43;0.43;;;2.90;99.90;;;;;;5065859;28;20221;-88
2024/01/21 11:09:33;;;;;;;0.50;0.50;;;2.80;99.90;;;;;;5068453;28;20641;-85
2024/01/21 11:12:01;;;;;;;0.50;0.50;;;2.70;99.90;;;;;;5066761;28;20475;-85
2024/01/21 11:14:30;;;;;;;0.50;0.50;;;2.70;99.90;;;;;;5067723;28;20451;-88
2024/01/21 11:16:56;;;;;;;0.40;0.40;;;2.80;99.90;;;;;;5065865;28;20444;-88
2024/01/21 11:19:23;;;;;;;0.40;0.40;;;2.80;99.90;;;;;;5067440;28;20452;-86
2024/01/21 11:21:55;;;;;;;0.43;0.43;;;2.90;99.90;;;;;;5066368;28;20451;-87
2024/01/21 11:24:29;;;;;;;0.43;0.43;;;2.90;99.90;;;;;;5068952;28;20440;-86
2024/01/21 11:26:56;;;;;;;0.50;0.50;;;2.90;99.90;;;;;;5065573;28;20480;-88
2024/01/21 11:29:24;;;;;;;0.40;0.40;;;2.90;99.90;;;;;;5066340;28;20451;-86
2024/01/21 11:31:51;;;;;;;0.47;0.47;;;2.90;99.90;;;;;;5066829;28;20964;-87
2024/01/21 11:34:17;;;;;;;0.50;0.50;;;3.00;99.90;;;;;;5061237;28;20505;-86
2024/01/21 11:36:44;;;;;;;0.30;0.30;;;3.00;99.90;;;;;;5063409;28;20460;-88
2024/01/21 11:39:09;;;;;;;0.50;0.50;;;2.90;99.90;;;;;;5047318;28;20447;-87
2024/01/21 11:41:41;;;;;;;0.50;0.50;;;3.00;99.90;;;;;;5068481;28;20798;-87
2024/01/21 11:44:25;;;;;;;0.50;0.50;;;3.00;99.90;;;;;;5069341;28;20272;-86
2024/01/21 11:46:53;;;;;;;0.40;0.40;;;3.00;99.90;;;;;;5056535;28;20471;-88
2024/01/21 11:49:20;;;;;;;0.40;0.40;;;2.90;99.90;;;;;;5046026;28;20440;-87
2024/01/21 11:51:46;;;;;;;0.50;0.50;;;3.00;99.90;;;;;;5049962;28;20429;-88
2024/01/21 11:54:12;;;;;;;0.40;0.40;;;3.00;99.90;;;;;;5051921;28;21037;-87
2024/01/21 11:56:41;;;;;;;0.50;0.50;;;3.00;99.90;;;;;;5046986;28;20220;-86
2024/01/21 11:59:09;;;;;;;0.50;0.50;;;3.10;99.90;;;;;;5062210;28;20448;-86
2024/01/21 12:01:38;;;;;;;0.50;0.50;;;3.10;99.90;;;;;;5061385;28;20558;-85
2024/01/21 12:04:09;;;;;;;0.50;0.50;;;3.20;99.90;;;;;;5063167;28;20532;-85
2024/01/21 12:06:40;;;;;;;0.33;0.33;;;3.20;99.90;;;;;;5064990;28;20825;-87
2024/01/21 12:09:07;;;;;;;0.37;0.37;;;3.30;99.90;;;;;;5048586;28;20793;-87
2024/01/21 12:11:35;;;;;;;0.30;0.30;;;3.40;99.90;;;;;;5043296;28;20976;-86
2024/01/21 12:14:13;;;;;;;0.50;0.50;;;3.40;99.90;;;;;;5067773;28;20569;-85
2024/01/21 12:16:42;;;;;;;0.40;0.40;;;3.40;99.90;;;;;;5070167;28;20424;-85
2024/01/21 12:19:10;;;;;;;0.40;0.40;;;3.50;99.90;;;;;;5069892;28;20489;-87
2024/01/21 12:21:35;;;;;;;0.40;0.40;;;3.60;99.90;;;;;;5069651;28;20444;-85
2024/01/21 12:24:02;;;;;;;0.40;0.40;;;3.60;99.90;;;;;;5046653;28;20460;-86
2024/01/21 12:26:28;;;;;;;0.40;0.40;;;3.50;99.90;;;;;;5072778;28;20225;-86
2024/01/21 12:29:01;;;;;;;0.40;0.40;;;3.50;99.90;;;;;;5071602;28;20451;-85
2024/01/21 12:31:52;;;;;;;0.40;0.40;;;3.60;99.90;;;;;;5052115;28;20605;-85
2024/01/21 12:34:19;;;;;;;0.30;0.30;;;3.50;99.90;;;;;;5070283;28;20424;-85
2024/01/21 12:36:49;;;;;;;0.40;0.40;;;3.50;99.90;;;;;;5055844;28;20432;-84
2024/01/21 12:39:16;;;;;;;0.40;0.40;;;3.50;99.90;;;;;;5074343;28;20446;-86
2024/01/21 12:41:41;;;;;;;0.50;0.50;;;3.40;99.90;;;;;;5066500;28;20527;-84
2024/01/21 12:44:07;;;;;;;0.50;0.50;;;3.50;99.90;;;;;;5072627;28;20841;-84
2024/01/21 12:46:38;;;;;;;0.40;0.40;;;3.50;99.90;;;;;;5069205;28;20220;-85
2024/01/21 12:49:04;;;;;;;0.50;0.50;;;3.50;99.90;;;;;;5073908;28;20638;-85
2024/01/21 12:51:33;;;;;;;0.40;0.40;;;3.50;99.90;;;;;;5069720;28;20447;-87